createdAt,value
2023-04-10T00:00:00.435Z,0.0
2023-04-10T00:05:00.593Z,0.0
2023-04-10T00:10:00.502Z,0.0
2023-04-10T00:15:00.421Z,0.0
2023-04-10T00:20:00.428Z,0.0
2023-04-10T00:25:00.369Z,0.0
2023-04-10T00:30:00.516Z,0.0
2023-04-10T00:35:00.412Z,0.0
2023-04-10T00:40:00.463Z,0.0
2023-04-10T00:45:00.440Z,0.0
2023-04-10T00:50:00.431Z,0.0
2023-04-10T00:55:00.367Z,0.0
2023-04-10T01:00:00.436Z,0.0
2023-04-10T01:05:00.369Z,0.0
2023-04-10T01:10:00.440Z,0.0
2023-04-10T01:15:00.365Z,0.0
2023-04-10T01:20:00.462Z,0.0
2023-04-10T01:25:00.425Z,0.0
2023-04-10T01:30:00.447Z,0.0
2023-04-10T01:35:00.416Z,0.0
2023-04-10T01:40:00.533Z,0.0
2023-04-10T01:45:00.420Z,0.0
2023-04-10T01:50:00.371Z,0.0
2023-04-10T01:55:00.385Z,0.0
2023-04-10T02:00:00.435Z,0.0
2023-04-10T02:05:00.660Z,0.0
2023-04-10T02:10:00.453Z,0.0
2023-04-10T02:15:00.389Z,0.0
2023-04-10T02:20:00.470Z,0.0
2023-04-10T02:25:00.440Z,0.0
2023-04-10T02:30:00.495Z,0.0
2023-04-10T02:35:00.393Z,0.0
2023-04-10T02:40:00.457Z,0.0
2023-04-10T02:45:00.446Z,0.0
2023-04-10T02:50:00.433Z,0.0
2023-04-10T02:55:00.458Z,0.0
2023-04-10T03:00:00.434Z,0.0
2023-04-10T03:05:00.671Z,0.0
2023-04-10T03:10:00.413Z,0.0
2023-04-10T03:15:00.390Z,0.0
2023-04-10T03:20:00.551Z,0.0
2023-04-10T03:25:00.391Z,0.0
2023-04-10T03:30:00.949Z,0.0
2023-04-10T03:35:00.376Z,0.0
2023-04-10T03:40:00.444Z,0.0
2023-04-10T03:45:00.406Z,0.0
2023-04-10T03:50:00.431Z,0.0
2023-04-10T03:55:00.502Z,0.0
2023-04-10T04:00:00.478Z,0.0
2023-04-10T04:05:00.512Z,0.0
2023-04-10T04:10:00.495Z,0.0
2023-04-10T04:15:00.402Z,0.0
2023-04-10T04:20:00.437Z,0.0
2023-04-10T04:25:00.401Z,0.0
2023-04-10T04:30:00.435Z,0.0
2023-04-10T04:35:00.380Z,0.0
2023-04-10T04:40:00.434Z,0.0
2023-04-10T04:45:00.361Z,1.4
2023-04-10T04:50:00.438Z,2.2
2023-04-10T04:55:00.423Z,2.2
2023-04-10T05:00:00.586Z,2.2
2023-04-10T05:05:00.432Z,0.0
2023-04-10T05:10:00.645Z,0.0
2023-04-10T05:15:00.555Z,0.0
2023-04-10T05:20:00.510Z,1.4
2023-04-10T05:25:00.512Z,2.2
2023-04-10T05:30:00.468Z,4.0
2023-04-10T05:35:00.405Z,3.2
2023-04-10T05:40:00.498Z,1.8
2023-04-10T05:45:00.519Z,5.4
2023-04-10T05:50:00.436Z,1.8
2023-04-10T05:55:00.471Z,1.4
2023-04-10T06:00:00.497Z,1.8
2023-04-10T06:05:00.630Z,2.2
2023-04-10T06:10:00.496Z,0.0
2023-04-10T06:15:00.427Z,3.2
2023-04-10T06:20:00.457Z,0.0
2023-04-10T06:25:00.451Z,2.5
2023-04-10T06:30:00.428Z,1.8
2023-04-10T06:35:00.438Z,1.8
2023-04-10T06:40:00.505Z,4.0
2023-04-10T06:45:00.443Z,2.9
2023-04-10T06:50:00.455Z,2.9
2023-04-10T06:55:00.457Z,4.0
2023-04-10T07:00:00.452Z,1.8
2023-04-10T07:05:00.428Z,0.0
2023-04-10T07:10:00.632Z,0.0
2023-04-10T07:15:00.462Z,6.5
2023-04-10T07:20:00.465Z,4.0
2023-04-10T07:25:00.468Z,4.7
2023-04-10T07:30:00.542Z,7.2
2023-04-10T07:35:00.457Z,5.4
2023-04-10T07:40:00.447Z,5.0
2023-04-10T07:45:00.440Z,7.6
2023-04-10T07:50:00.469Z,6.8
2023-04-10T07:55:00.421Z,7.6
2023-04-10T08:00:00.464Z,6.5
2023-04-10T08:05:00.839Z,9.0
2023-04-10T08:10:00.435Z,2.5
2023-04-10T08:15:00.439Z,5.0
2023-04-10T08:20:00.499Z,1.8
2023-04-10T08:25:00.400Z,8.6
2023-04-10T08:30:00.506Z,4.3
2023-04-10T08:35:00.559Z,7.9
2023-04-10T08:40:00.468Z,6.1
2023-04-10T08:45:00.460Z,2.5
2023-04-10T08:50:00.464Z,6.5
2023-04-10T08:55:00.426Z,7.2
2023-04-10T09:00:22.883Z,8.3
2023-04-10T09:05:00.432Z,4.7
2023-04-10T09:10:00.599Z,2.5
2023-04-10T09:15:00.488Z,11.2
2023-04-10T09:20:00.455Z,5.0
2023-04-10T09:25:00.468Z,3.2
2023-04-10T09:30:00.464Z,7.2
2023-04-10T09:35:00.437Z,10.4
2023-04-10T09:40:00.538Z,12.6
2023-04-10T09:45:00.443Z,15.5
2023-04-10T09:50:00.440Z,5.8
2023-04-10T09:55:00.462Z,11.9
2023-04-10T10:00:00.611Z,13.7
2023-04-10T10:05:00.609Z,7.6
2023-04-10T10:10:00.431Z,13.7
2023-04-10T10:15:00.415Z,4.7
2023-04-10T10:20:00.434Z,12.2
2023-04-10T10:25:00.689Z,15.8
2023-04-10T10:30:20.691Z,13.7
2023-04-10T10:35:00.544Z,7.6
2023-04-10T10:40:00.716Z,14.8
2023-04-10T10:45:00.738Z,16.6
2023-04-10T10:50:00.442Z,8.6
2023-04-10T10:55:00.577Z,9.7
2023-04-10T11:00:00.572Z,8.6
2023-04-10T11:05:00.450Z,4.3
2023-04-10T11:10:00.517Z,11.9
2023-04-10T11:15:00.498Z,14.8
2023-04-10T11:20:00.451Z,10.1
2023-04-10T11:25:00.781Z,14.8
2023-04-10T11:30:00.483Z,15.1
2023-04-10T11:35:05.155Z,6.8
2023-04-10T11:40:00.443Z,12.2
2023-04-10T11:45:01.109Z,21.6
2023-04-10T11:50:00.430Z,5.4
2023-04-10T11:55:00.416Z,15.1
2023-04-10T12:00:00.469Z,13.7
2023-04-10T12:05:00.537Z,13.0
2023-04-10T12:10:00.425Z,15.1
2023-04-10T12:15:02.627Z,13.3
2023-04-10T12:20:00.481Z,18.7
2023-04-10T12:25:00.406Z,19.1
2023-04-10T12:30:00.517Z,18.4
2023-04-10T12:35:00.501Z,15.5
2023-04-10T12:40:00.430Z,20.2
2023-04-10T12:45:00.646Z,16.6
2023-04-10T12:50:00.429Z,17.3
2023-04-10T12:55:00.551Z,21.6
2023-04-10T13:00:00.512Z,15.5
2023-04-10T13:05:00.455Z,15.1
2023-04-10T13:10:00.542Z,14.8
2023-04-10T13:15:00.425Z,3.6
2023-04-10T13:20:00.433Z,18.4
2023-04-10T13:25:00.404Z,12.2
2023-04-10T13:30:00.567Z,6.8
2023-04-10T13:35:00.445Z,14.8
2023-04-10T13:40:00.435Z,20.9
2023-04-10T13:45:00.465Z,20.2
2023-04-10T13:50:00.464Z,16.6
2023-04-10T13:55:00.450Z,26.6
2023-04-10T14:00:00.437Z,18.4
2023-04-10T14:05:00.415Z,19.8
2023-04-10T14:10:00.442Z,22.0
2023-04-10T14:15:00.442Z,12.6
2023-04-10T14:20:00.468Z,15.5
2023-04-10T14:25:14.036Z,22.0
2023-04-10T14:30:00.464Z,16.9
2023-04-10T14:35:00.430Z,18.4
2023-04-10T14:40:00.437Z,6.8
2023-04-10T14:45:00.530Z,18.7
2023-04-10T14:50:00.433Z,19.1
2023-04-10T14:55:00.433Z,18.0
2023-04-10T15:00:00.457Z,16.9
2023-04-10T15:05:00.432Z,18.7
2023-04-10T15:10:00.706Z,20.5
2023-04-10T15:15:00.413Z,4.7
2023-04-10T15:20:00.469Z,24.1
2023-04-10T15:25:00.446Z,12.2
2023-04-10T15:30:00.497Z,15.5
2023-04-10T15:35:00.543Z,12.6
2023-04-10T15:40:00.474Z,11.5
2023-04-10T15:45:00.451Z,15.8
2023-04-10T15:50:00.438Z,22.0
2023-04-10T15:55:00.460Z,19.1
2023-04-10T16:00:00.683Z,19.4
2023-04-10T16:05:00.814Z,17.3
2023-04-10T16:10:00.891Z,28.8
2023-04-10T16:15:00.464Z,19.8
2023-04-10T16:20:00.494Z,6.5
2023-04-10T16:25:00.408Z,10.4
2023-04-10T16:30:00.466Z,16.2
2023-04-10T16:35:00.434Z,10.4
2023-04-10T16:40:00.814Z,8.6
2023-04-10T16:45:00.441Z,13.3
2023-04-10T16:50:00.656Z,7.6
2023-04-10T16:55:00.448Z,9.0
2023-04-10T17:00:01.277Z,16.9
2023-04-10T17:05:00.447Z,11.5
2023-04-10T17:10:00.830Z,22.0
2023-04-10T17:15:00.467Z,9.0
2023-04-10T17:20:00.435Z,6.5
2023-04-10T17:25:00.470Z,6.8
2023-04-10T17:30:00.510Z,11.2
2023-04-10T17:35:00.404Z,6.5
2023-04-10T17:40:00.466Z,4.7
2023-04-10T17:45:00.430Z,12.2
2023-04-10T17:50:00.578Z,7.2
2023-04-10T17:55:00.501Z,4.0
2023-04-10T18:00:00.452Z,12.2
2023-04-10T18:05:00.373Z,12.6
2023-04-10T18:10:00.442Z,5.8
2023-04-10T18:15:00.399Z,5.4
2023-04-10T18:20:00.377Z,6.8
2023-04-10T18:25:00.494Z,9.7
2023-04-10T18:30:00.478Z,8.6
2023-04-10T18:35:00.509Z,4.7
2023-04-10T18:40:16.558Z,3.6
2023-04-10T18:45:00.357Z,13.0
2023-04-10T18:50:00.454Z,8.6
2023-04-10T18:55:00.419Z,10.8
2023-04-10T19:00:00.639Z,6.5
2023-04-10T19:05:00.374Z,13.0
2023-04-10T19:10:00.477Z,15.8
2023-04-10T19:15:00.435Z,9.0
2023-04-10T19:20:00.610Z,11.2
2023-04-10T19:25:00.434Z,12.2
2023-04-10T19:30:00.460Z,14.8
2023-04-10T19:35:00.415Z,11.5
2023-04-10T19:40:00.442Z,14.8
2023-04-10T19:45:00.383Z,16.9
2023-04-10T19:50:00.639Z,16.2
2023-04-10T19:55:00.444Z,8.3
2023-04-10T20:00:00.439Z,20.5
2023-04-10T20:05:00.636Z,15.8
2023-04-10T20:10:00.429Z,7.2
2023-04-10T20:15:00.424Z,11.2
2023-04-10T20:20:00.504Z,19.1
2023-04-10T20:25:00.589Z,13.3
2023-04-10T20:30:00.497Z,18.0
2023-04-10T20:35:00.373Z,15.8
2023-04-10T20:40:00.425Z,14.8
2023-04-10T20:45:00.452Z,15.5
2023-04-10T20:50:00.450Z,15.1
2023-04-10T20:55:00.374Z,21.6
2023-04-10T21:00:00.509Z,10.4
2023-04-10T21:05:00.383Z,14.4
2023-04-10T21:10:00.465Z,7.9
2023-04-10T21:15:00.456Z,7.2
2023-04-10T21:20:00.377Z,13.7
2023-04-10T21:25:00.420Z,14.8
2023-04-10T21:30:00.445Z,25.9
2023-04-10T21:35:00.389Z,13.3
2023-04-10T21:40:00.460Z,20.9
2023-04-10T21:45:00.360Z,19.4
2023-04-10T21:50:00.655Z,13.7
2023-04-10T21:55:00.382Z,18.0
2023-04-10T22:00:00.976Z,13.3
2023-04-10T22:05:00.498Z,3.6
2023-04-10T22:10:00.386Z,7.6
2023-04-10T22:15:00.466Z,10.1
2023-04-10T22:20:00.428Z,13.7
2023-04-10T22:25:00.437Z,18.7
2023-04-10T22:30:04.840Z,12.6
2023-04-10T22:35:00.448Z,13.3
2023-04-10T22:40:00.508Z,13.7
2023-04-10T22:45:00.415Z,15.5
2023-04-10T22:50:00.455Z,14.8
2023-04-10T22:55:00.475Z,26.3
2023-04-10T23:00:01.195Z,19.4
2023-04-10T23:05:00.360Z,11.2
2023-04-10T23:10:00.442Z,14.8
2023-04-10T23:15:00.443Z,15.8
2023-04-10T23:20:00.440Z,15.1
2023-04-10T23:25:00.360Z,17.6
2023-04-10T23:30:00.427Z,22.7
2023-04-10T23:35:00.379Z,17.3
2023-04-10T23:40:00.406Z,20.9
2023-04-10T23:45:00.371Z,10.8
2023-04-10T23:50:00.538Z,11.2
2023-04-10T23:55:00.435Z,17.6
